sensor_id;sensor_type;location;lat;lon;timestamp;temperature;humidity
15543;DHT22;7873;52.230;12.856;2022-07-03T00:02:15;23.90;42.20
15543;DHT22;7873;52.230;12.856;2022-07-03T00:04:41;23.90;42.30
15543;DHT22;7873;52.230;12.856;2022-07-03T00:07:08;23.90;42.20
15543;DHT22;7873;52.230;12.856;2022-07-03T00:09:36;23.80;42.40
15543;DHT22;7873;52.230;12.856;2022-07-03T00:12:03;23.90;42.30
15543;DHT22;7873;52.230;12.856;2022-07-03T00:14:30;23.80;42.60
15543;DHT22;7873;52.230;12.856;2022-07-03T00:16:58;23.80;42.60
15543;DHT22;7873;52.230;12.856;2022-07-03T00:19:25;23.80;42.60
15543;DHT22;7873;52.230;12.856;2022-07-03T00:21:52;23.70;42.50
15543;DHT22;7873;52.230;12.856;2022-07-03T00:24:23;23.70;42.70
15543;DHT22;7873;52.230;12.856;2022-07-03T00:26:53;23.70;42.50
15543;DHT22;7873;52.230;12.856;2022-07-03T00:29:21;23.80;42.50
15543;DHT22;7873;52.230;12.856;2022-07-03T00:31:49;23.60;42.40
15543;DHT22;7873;52.230;12.856;2022-07-03T00:34:16;23.60;42.40
15543;DHT22;7873;52.230;12.856;2022-07-03T00:36:45;23.60;42.30
15543;DHT22;7873;52.230;12.856;2022-07-03T00:39:13;23.70;42.30
15543;DHT22;7873;52.230;12.856;2022-07-03T00:41:40;23.70;42.30
15543;DHT22;7873;52.230;12.856;2022-07-03T00:44:08;23.60;42.40
15543;DHT22;7873;52.230;12.856;2022-07-03T00:46:37;23.60;42.40
15543;DHT22;7873;52.230;12.856;2022-07-03T00:49:05;23.60;42.50
15543;DHT22;7873;52.230;12.856;2022-07-03T00:51:34;23.50;42.80
15543;DHT22;7873;52.230;12.856;2022-07-03T00:54:03;23.40;42.80
15543;DHT22;7873;52.230;12.856;2022-07-03T00:56:30;23.50;42.80
15543;DHT22;7873;52.230;12.856;2022-07-03T00:58:58;23.40;42.80
15543;DHT22;7873;52.230;12.856;2022-07-03T01:01:29;23.40;42.80
15543;DHT22;7873;52.230;12.856;2022-07-03T01:04:02;23.40;43.10
15543;DHT22;7873;52.230;12.856;2022-07-03T01:06:33;23.30;43.00
15543;DHT22;7873;52.230;12.856;2022-07-03T01:09:03;23.30;43.00
15543;DHT22;7873;52.230;12.856;2022-07-03T01:11:34;23.40;42.90
15543;DHT22;7873;52.230;12.856;2022-07-03T01:14:13;23.40;43.00
15543;DHT22;7873;52.230;12.856;2022-07-03T01:16:49;23.40;43.00
15543;DHT22;7873;52.230;12.856;2022-07-03T01:19:26;23.40;43.00
15543;DHT22;7873;52.230;12.856;2022-07-03T01:22:02;23.30;43.10
15543;DHT22;7873;52.230;12.856;2022-07-03T01:24:55;23.30;43.10
15543;DHT22;7873;52.230;12.856;2022-07-03T01:27:31;23.20;43.30
15543;DHT22;7873;52.230;12.856;2022-07-03T01:30:03;23.20;43.20
15543;DHT22;7873;52.230;12.856;2022-07-03T01:32:32;23.20;43.10
15543;DHT22;7873;52.230;12.856;2022-07-03T01:35:04;23.20;43.10
15543;DHT22;7873;52.230;12.856;2022-07-03T01:37:33;23.20;43.10
15543;DHT22;7873;52.230;12.856;2022-07-03T01:40:02;23.20;43.00
15543;DHT22;7873;52.230;12.856;2022-07-03T01:42:32;23.00;43.20
15543;DHT22;7873;52.230;12.856;2022-07-03T01:45:00;23.10;43.40
15543;DHT22;7873;52.230;12.856;2022-07-03T01:47:28;23.10;43.30
15543;DHT22;7873;52.230;12.856;2022-07-03T01:49:55;23.00;43.30
15543;DHT22;7873;52.230;12.856;2022-07-03T01:52:24;23.10;43.30
15543;DHT22;7873;52.230;12.856;2022-07-03T01:54:51;23.00;43.30
15543;DHT22;7873;52.230;12.856;2022-07-03T01:57:20;23.00;43.40
15543;DHT22;7873;52.230;12.856;2022-07-03T01:59:51;23.00;43.50
15543;DHT22;7873;52.230;12.856;2022-07-03T02:02:20;23.00;43.50
15543;DHT22;7873;52.230;12.856;2022-07-03T02:04:53;23.00;43.60
15543;DHT22;7873;52.230;12.856;2022-07-03T02:07:35;22.90;43.70
15543;DHT22;7873;52.230;12.856;2022-07-03T02:10:07;22.90;43.70
15543;DHT22;7873;52.230;12.856;2022-07-03T02:12:37;22.90;43.60
15543;DHT22;7873;52.230;12.856;2022-07-03T02:15:09;22.80;43.70
15543;DHT22;7873;52.230;12.856;2022-07-03T02:17:37;22.80;43.80
15543;DHT22;7873;52.230;12.856;2022-07-03T02:20:09;22.90;43.60
15543;DHT22;7873;52.230;12.856;2022-07-03T02:22:37;22.80;43.70
15543;DHT22;7873;52.230;12.856;2022-07-03T02:25:07;22.90;43.70
15543;DHT22;7873;52.230;12.856;2022-07-03T02:27:49;22.80;43.70
15543;DHT22;7873;52.230;12.856;2022-07-03T02:30:21;22.80;43.80
15543;DHT22;7873;52.230;12.856;2022-07-03T02:32:49;22.70;43.90
15543;DHT22;7873;52.230;12.856;2022-07-03T02:35:17;22.70;43.70
15543;DHT22;7873;52.230;12.856;2022-07-03T02:37:50;22.70;43.80
15543;DHT22;7873;52.230;12.856;2022-07-03T02:40:23;22.70;43.80
15543;DHT22;7873;52.230;12.856;2022-07-03T02:43:01;22.70;43.70
15543;DHT22;7873;52.230;12.856;2022-07-03T02:45:40;22.60;43.80
15543;DHT22;7873;52.230;12.856;2022-07-03T02:48:12;22.60;43.90
15543;DHT22;7873;52.230;12.856;2022-07-03T02:50:46;22.60;44.10
15543;DHT22;7873;52.230;12.856;2022-07-03T02:53:20;22.60;44.10
15543;DHT22;7873;52.230;12.856;2022-07-03T02:55:51;22.60;44.10
15543;DHT22;7873;52.230;12.856;2022-07-03T03:01:29;22.50;44.10
15543;DHT22;7873;52.230;12.856;2022-07-03T03:04:08;22.50;44.00
15543;DHT22;7873;52.230;12.856;2022-07-03T03:06:41;22.50;44.00
15543;DHT22;7873;52.230;12.856;2022-07-03T03:09:14;22.50;44.00
15543;DHT22;7873;52.230;12.856;2022-07-03T03:11:46;22.40;44.10
15543;DHT22;7873;52.230;12.856;2022-07-03T03:14:15;22.50;44.10
15543;DHT22;7873;52.230;12.856;2022-07-03T03:16:48;22.40;44.80
15543;DHT22;7873;52.230;12.856;2022-07-03T03:19:18;22.40;44.10
15543;DHT22;7873;52.230;12.856;2022-07-03T03:21:52;22.50;44.10
15543;DHT22;7873;52.230;12.856;2022-07-03T03:24:24;22.40;44.10
15543;DHT22;7873;52.230;12.856;2022-07-03T03:26:52;22.40;44.30
15543;DHT22;7873;52.230;12.856;2022-07-03T03:29:19;22.40;44.40
15543;DHT22;7873;52.230;12.856;2022-07-03T03:31:45;22.30;44.60
15543;DHT22;7873;52.230;12.856;2022-07-03T03:34:13;22.30;44.70
15543;DHT22;7873;52.230;12.856;2022-07-03T03:36:41;22.30;44.60
15543;DHT22;7873;52.230;12.856;2022-07-03T03:39:08;22.30;44.70
15543;DHT22;7873;52.230;12.856;2022-07-03T03:41:35;22.30;44.70
15543;DHT22;7873;52.230;12.856;2022-07-03T03:44:01;22.30;44.90
15543;DHT22;7873;52.230;12.856;2022-07-03T03:46:28;22.30;45.00
15543;DHT22;7873;52.230;12.856;2022-07-03T03:48:56;22.20;45.00
15543;DHT22;7873;52.230;12.856;2022-07-03T03:51:23;22.30;45.00
15543;DHT22;7873;52.230;12.856;2022-07-03T03:53:50;22.30;45.00
15543;DHT22;7873;52.230;12.856;2022-07-03T03:56:17;22.20;45.20
15543;DHT22;7873;52.230;12.856;2022-07-03T03:58:44;22.20;45.00
15543;DHT22;7873;52.230;12.856;2022-07-03T04:01:10;22.20;45.20
15543;DHT22;7873;52.230;12.856;2022-07-03T04:03:38;22.20;45.30
15543;DHT22;7873;52.230;12.856;2022-07-03T04:06:07;22.20;45.60
15543;DHT22;7873;52.230;12.856;2022-07-03T04:08:34;22.00;45.90
15543;DHT22;7873;52.230;12.856;2022-07-03T04:11:01;22.10;45.90
15543;DHT22;7873;52.230;12.856;2022-07-03T04:13:27;22.30;46.00
15543;DHT22;7873;52.230;12.856;2022-07-03T04:15:54;22.40;45.70
15543;DHT22;7873;52.230;12.856;2022-07-03T04:18:21;22.40;45.90
15543;DHT22;7873;52.230;12.856;2022-07-03T04:20:47;22.50;45.90
15543;DHT22;7873;52.230;12.856;2022-07-03T04:23:16;22.50;46.30
15543;DHT22;7873;52.230;12.856;2022-07-03T04:25:43;22.60;46.70
15543;DHT22;7873;52.230;12.856;2022-07-03T04:28:09;22.60;46.90
15543;DHT22;7873;52.230;12.856;2022-07-03T04:30:36;22.80;46.70
15543;DHT22;7873;52.230;12.856;2022-07-03T04:33:03;22.80;46.70
15543;DHT22;7873;52.230;12.856;2022-07-03T04:35:30;22.70;46.70
15543;DHT22;7873;52.230;12.856;2022-07-03T04:37:56;22.60;47.10
15543;DHT22;7873;52.230;12.856;2022-07-03T04:40:24;22.70;47.40
15543;DHT22;7873;52.230;12.856;2022-07-03T04:42:51;22.80;47.40
15543;DHT22;7873;52.230;12.856;2022-07-03T04:45:18;22.80;47.60
15543;DHT22;7873;52.230;12.856;2022-07-03T04:47:45;22.80;47.70
15543;DHT22;7873;52.230;12.856;2022-07-03T04:50:12;22.80;47.80
15543;DHT22;7873;52.230;12.856;2022-07-03T04:52:38;22.80;47.70
15543;DHT22;7873;52.230;12.856;2022-07-03T04:55:05;22.90;48.10
15543;DHT22;7873;52.230;12.856;2022-07-03T04:57:36;22.90;48.10
15543;DHT22;7873;52.230;12.856;2022-07-03T05:00:04;22.90;48.00
15543;DHT22;7873;52.230;12.856;2022-07-03T05:02:32;23.20;47.80
15543;DHT22;7873;52.230;12.856;2022-07-03T05:04:58;23.00;47.90
15543;DHT22;7873;52.230;12.856;2022-07-03T05:07:25;23.10;47.80
15543;DHT22;7873;52.230;12.856;2022-07-03T05:09:52;23.20;47.70
15543;DHT22;7873;52.230;12.856;2022-07-03T05:12:18;23.10;47.60
15543;DHT22;7873;52.230;12.856;2022-07-03T05:14:46;23.10;47.80
15543;DHT22;7873;52.230;12.856;2022-07-03T05:17:13;23.20;47.60
15543;DHT22;7873;52.230;12.856;2022-07-03T05:19:39;23.20;47.60
15543;DHT22;7873;52.230;12.856;2022-07-03T05:22:06;23.30;47.30
15543;DHT22;7873;52.230;12.856;2022-07-03T05:24:33;23.40;46.60
15543;DHT22;7873;52.230;12.856;2022-07-03T05:26:59;23.30;47.20
15543;DHT22;7873;52.230;12.856;2022-07-03T05:29:26;23.20;47.50
15543;DHT22;7873;52.230;12.856;2022-07-03T05:31:54;23.00;47.50
15543;DHT22;7873;52.230;12.856;2022-07-03T05:34:21;22.70;47.40
15543;DHT22;7873;52.230;12.856;2022-07-03T05:36:47;22.60;48.70
15543;DHT22;7873;52.230;12.856;2022-07-03T05:39:14;22.50;48.20
15543;DHT22;7873;52.230;12.856;2022-07-03T05:41:59;22.40;47.80
15543;DHT22;7873;52.230;12.856;2022-07-03T05:44:26;22.50;47.30
15543;DHT22;7873;52.230;12.856;2022-07-03T05:46:54;22.30;47.80
15543;DHT22;7873;52.230;12.856;2022-07-03T05:49:21;22.20;48.30
15543;DHT22;7873;52.230;12.856;2022-07-03T05:51:48;22.00;48.80
15543;DHT22;7873;52.230;12.856;2022-07-03T05:54:14;22.20;48.70
15543;DHT22;7873;52.230;12.856;2022-07-03T05:56:41;22.00;49.30
15543;DHT22;7873;52.230;12.856;2022-07-03T05:59:08;21.90;49.30
15543;DHT22;7873;52.230;12.856;2022-07-03T06:01:35;22.10;49.40
15543;DHT22;7873;52.230;12.856;2022-07-03T06:04:03;22.10;49.50
15543;DHT22;7873;52.230;12.856;2022-07-03T06:06:30;21.90;49.80
15543;DHT22;7873;52.230;12.856;2022-07-03T06:08:56;21.80;50.50
15543;DHT22;7873;52.230;12.856;2022-07-03T06:11:23;21.80;50.40
15543;DHT22;7873;52.230;12.856;2022-07-03T06:13:50;21.90;50.40
15543;DHT22;7873;52.230;12.856;2022-07-03T06:16:16;21.90;50.40
15543;DHT22;7873;52.230;12.856;2022-07-03T06:18:43;21.90;50.50
15543;DHT22;7873;52.230;12.856;2022-07-03T06:21:11;22.10;50.40
15543;DHT22;7873;52.230;12.856;2022-07-03T06:23:38;22.10;50.40
15543;DHT22;7873;52.230;12.856;2022-07-03T06:26:05;22.00;50.40
15543;DHT22;7873;52.230;12.856;2022-07-03T06:28:31;22.10;50.40
15543;DHT22;7873;52.230;12.856;2022-07-03T06:30:58;22.10;50.30
15543;DHT22;7873;52.230;12.856;2022-07-03T06:33:25;22.10;50.40
15543;DHT22;7873;52.230;12.856;2022-07-03T06:35:51;22.10;50.20
15543;DHT22;7873;52.230;12.856;2022-07-03T06:38:19;22.10;50.50
15543;DHT22;7873;52.230;12.856;2022-07-03T06:40:46;22.00;50.60
15543;DHT22;7873;52.230;12.856;2022-07-03T06:43:13;22.10;50.90
15543;DHT22;7873;52.230;12.856;2022-07-03T06:45:39;22.30;50.20
15543;DHT22;7873;52.230;12.856;2022-07-03T06:48:06;22.50;50.30
15543;DHT22;7873;52.230;12.856;2022-07-03T06:50:33;22.70;49.80
15543;DHT22;7873;52.230;12.856;2022-07-03T06:52:59;22.70;49.50
15543;DHT22;7873;52.230;12.856;2022-07-03T06:55:28;22.80;49.30
15543;DHT22;7873;52.230;12.856;2022-07-03T06:57:55;22.90;49.50
15543;DHT22;7873;52.230;12.856;2022-07-03T07:00:21;23.10;49.90
15543;DHT22;7873;52.230;12.856;2022-07-03T07:02:48;23.10;48.80
15543;DHT22;7873;52.230;12.856;2022-07-03T07:05:14;23.20;48.70
15543;DHT22;7873;52.230;12.856;2022-07-03T07:07:41;23.10;48.50
15543;DHT22;7873;52.230;12.856;2022-07-03T07:10:08;23.10;48.50
15543;DHT22;7873;52.230;12.856;2022-07-03T07:12:37;23.10;48.20
15543;DHT22;7873;52.230;12.856;2022-07-03T07:15:03;23.20;48.20
15543;DHT22;7873;52.230;12.856;2022-07-03T07:17:31;23.40;48.00
15543;DHT22;7873;52.230;12.856;2022-07-03T07:19:57;23.40;47.90
15543;DHT22;7873;52.230;12.856;2022-07-03T07:22:24;23.40;48.00
15543;DHT22;7873;52.230;12.856;2022-07-03T07:24:51;23.40;47.90
15543;DHT22;7873;52.230;12.856;2022-07-03T07:27:17;23.20;47.90
15543;DHT22;7873;52.230;12.856;2022-07-03T07:29:46;23.20;48.30
15543;DHT22;7873;52.230;12.856;2022-07-03T07:32:12;23.20;48.60
15543;DHT22;7873;52.230;12.856;2022-07-03T07:34:39;23.20;48.30
15543;DHT22;7873;52.230;12.856;2022-07-03T07:37:06;23.20;48.20
15543;DHT22;7873;52.230;12.856;2022-07-03T07:39:33;23.30;48.00
15543;DHT22;7873;52.230;12.856;2022-07-03T07:41:59;23.30;47.80
15543;DHT22;7873;52.230;12.856;2022-07-03T07:44:26;23.30;47.70
15543;DHT22;7873;52.230;12.856;2022-07-03T07:46:54;23.40;47.60
15543;DHT22;7873;52.230;12.856;2022-07-03T07:49:20;23.40;47.40
15543;DHT22;7873;52.230;12.856;2022-07-03T07:51:47;23.30;47.30
15543;DHT22;7873;52.230;12.856;2022-07-03T07:54:14;23.30;47.30
15543;DHT22;7873;52.230;12.856;2022-07-03T07:56:40;23.40;47.10
15543;DHT22;7873;52.230;12.856;2022-07-03T07:59:07;23.40;47.00
15543;DHT22;7873;52.230;12.856;2022-07-03T08:01:34;23.50;46.70
15543;DHT22;7873;52.230;12.856;2022-07-03T08:04:19;23.50;46.90
15543;DHT22;7873;52.230;12.856;2022-07-03T08:07:04;23.50;47.00
15543;DHT22;7873;52.230;12.856;2022-07-03T08:09:30;23.50;47.00
15543;DHT22;7873;52.230;12.856;2022-07-03T08:11:57;23.40;47.10
15543;DHT22;7873;52.230;12.856;2022-07-03T08:14:24;23.40;47.10
15543;DHT22;7873;52.230;12.856;2022-07-03T08:16:50;23.40;46.90
15543;DHT22;7873;52.230;12.856;2022-07-03T08:19:17;23.40;46.90
15543;DHT22;7873;52.230;12.856;2022-07-03T08:21:45;23.50;46.80
15543;DHT22;7873;52.230;12.856;2022-07-03T08:24:12;23.50;46.80
15543;DHT22;7873;52.230;12.856;2022-07-03T08:26:39;23.40;46.60
15543;DHT22;7873;52.230;12.856;2022-07-03T08:29:05;23.50;46.60
15543;DHT22;7873;52.230;12.856;2022-07-03T08:31:32;23.50;46.60
15543;DHT22;7873;52.230;12.856;2022-07-03T08:33:58;23.50;46.70
15543;DHT22;7873;52.230;12.856;2022-07-03T08:36:25;23.40;46.70
15543;DHT22;7873;52.230;12.856;2022-07-03T08:38:53;23.20;47.00
15543;DHT22;7873;52.230;12.856;2022-07-03T08:41:21;23.20;47.20
15543;DHT22;7873;52.230;12.856;2022-07-03T08:43:49;23.20;47.10
15543;DHT22;7873;52.230;12.856;2022-07-03T08:46:36;23.20;47.40
15543;DHT22;7873;52.230;12.856;2022-07-03T08:49:04;23.20;47.50
15543;DHT22;7873;52.230;12.856;2022-07-03T08:51:32;23.20;47.50
15543;DHT22;7873;52.230;12.856;2022-07-03T08:54:00;23.30;47.10
15543;DHT22;7873;52.230;12.856;2022-07-03T08:56:27;23.40;47.00
15543;DHT22;7873;52.230;12.856;2022-07-03T08:58:54;23.50;47.00
15543;DHT22;7873;52.230;12.856;2022-07-03T09:01:23;23.50;46.90
15543;DHT22;7873;52.230;12.856;2022-07-03T09:03:51;23.50;47.30
15543;DHT22;7873;52.230;12.856;2022-07-03T09:06:18;23.50;47.20
15543;DHT22;7873;52.230;12.856;2022-07-03T09:08:46;23.60;46.90
15543;DHT22;7873;52.230;12.856;2022-07-03T09:11:14;23.60;47.10
15543;DHT22;7873;52.230;12.856;2022-07-03T09:13:41;23.60;47.70
15543;DHT22;7873;52.230;12.856;2022-07-03T09:16:13;23.60;47.10
15543;DHT22;7873;52.230;12.856;2022-07-03T09:18:41;23.40;47.60
15543;DHT22;7873;52.230;12.856;2022-07-03T09:21:09;23.40;47.70
15543;DHT22;7873;52.230;12.856;2022-07-03T09:23:36;23.50;47.70
15543;DHT22;7873;52.230;12.856;2022-07-03T09:26:03;23.50;47.80
15543;DHT22;7873;52.230;12.856;2022-07-03T09:28:42;23.50;47.70
15543;DHT22;7873;52.230;12.856;2022-07-03T09:31:11;23.40;47.70
15543;DHT22;7873;52.230;12.856;2022-07-03T09:36:39;23.50;47.60
15543;DHT22;7873;52.230;12.856;2022-07-03T09:39:13;23.50;47.70
15543;DHT22;7873;52.230;12.856;2022-07-03T09:41:51;23.60;47.50
15543;DHT22;7873;52.230;12.856;2022-07-03T09:44:29;23.60;47.30
15543;DHT22;7873;52.230;12.856;2022-07-03T09:47:09;23.60;47.40
15543;DHT22;7873;52.230;12.856;2022-07-03T09:49:45;23.50;47.90
15543;DHT22;7873;52.230;12.856;2022-07-03T09:52:31;23.50;48.00
15543;DHT22;7873;52.230;12.856;2022-07-03T09:54:59;23.50;48.00
15543;DHT22;7873;52.230;12.856;2022-07-03T09:57:28;23.50;48.10
15543;DHT22;7873;52.230;12.856;2022-07-03T10:00:09;23.60;47.80
15543;DHT22;7873;52.230;12.856;2022-07-03T10:02:49;23.50;48.00
15543;DHT22;7873;52.230;12.856;2022-07-03T10:05:17;23.40;48.70
15543;DHT22;7873;52.230;12.856;2022-07-03T10:07:52;23.50;49.10
15543;DHT22;7873;52.230;12.856;2022-07-03T10:10:21;23.40;49.70
15543;DHT22;7873;52.230;12.856;2022-07-03T10:12:49;23.40;49.80
15543;DHT22;7873;52.230;12.856;2022-07-03T10:15:18;23.40;49.70
15543;DHT22;7873;52.230;12.856;2022-07-03T10:17:47;23.50;49.50
15543;DHT22;7873;52.230;12.856;2022-07-03T10:20:15;23.50;49.30
15543;DHT22;7873;52.230;12.856;2022-07-03T10:22:45;23.60;49.10
15543;DHT22;7873;52.230;12.856;2022-07-03T10:25:14;23.50;49.00
15543;DHT22;7873;52.230;12.856;2022-07-03T10:27:43;23.60;48.70
15543;DHT22;7873;52.230;12.856;2022-07-03T10:30:10;23.70;48.60
15543;DHT22;7873;52.230;12.856;2022-07-03T10:32:41;23.70;48.60
15543;DHT22;7873;52.230;12.856;2022-07-03T10:35:10;23.70;48.50
15543;DHT22;7873;52.230;12.856;2022-07-03T10:37:41;23.60;48.60
15543;DHT22;7873;52.230;12.856;2022-07-03T10:40:27;23.70;48.40
15543;DHT22;7873;52.230;12.856;2022-07-03T10:43:21;23.60;48.60
15543;DHT22;7873;52.230;12.856;2022-07-03T10:46:11;23.60;48.90
15543;DHT22;7873;52.230;12.856;2022-07-03T10:48:51;23.40;49.40
15543;DHT22;7873;52.230;12.856;2022-07-03T10:51:25;23.40;49.50
15543;DHT22;7873;52.230;12.856;2022-07-03T10:54:11;23.50;49.80
15543;DHT22;7873;52.230;12.856;2022-07-03T11:02:28;23.60;49.40
15543;DHT22;7873;52.230;12.856;2022-07-03T11:05:09;23.60;50.00
15543;DHT22;7873;52.230;12.856;2022-07-03T11:07:39;23.60;49.70
15543;DHT22;7873;52.230;12.856;2022-07-03T11:10:28;23.60;48.70
15543;DHT22;7873;52.230;12.856;2022-07-03T11:12:57;23.60;49.30
15543;DHT22;7873;52.230;12.856;2022-07-03T11:15:24;23.70;49.70
15543;DHT22;7873;52.230;12.856;2022-07-03T11:18:06;23.80;49.90
15543;DHT22;7873;52.230;12.856;2022-07-03T11:20:36;23.80;49.50
15543;DHT22;7873;52.230;12.856;2022-07-03T11:23:13;24.00;49.40
15543;DHT22;7873;52.230;12.856;2022-07-03T11:25:46;24.00;49.30
15543;DHT22;7873;52.230;12.856;2022-07-03T11:31:17;24.00;49.50
15543;DHT22;7873;52.230;12.856;2022-07-03T11:33:47;24.10;49.40
15543;DHT22;7873;52.230;12.856;2022-07-03T11:36:25;24.10;49.30
15543;DHT22;7873;52.230;12.856;2022-07-03T11:39:02;24.10;49.30
15543;DHT22;7873;52.230;12.856;2022-07-03T11:41:41;24.20;49.00
15543;DHT22;7873;52.230;12.856;2022-07-03T11:44:10;24.20;48.80
15543;DHT22;7873;52.230;12.856;2022-07-03T11:46:41;24.20;48.80
15543;DHT22;7873;52.230;12.856;2022-07-03T11:49:08;24.20;48.80
15543;DHT22;7873;52.230;12.856;2022-07-03T11:51:38;24.20;48.80
15543;DHT22;7873;52.230;12.856;2022-07-03T11:54:05;24.30;48.70
15543;DHT22;7873;52.230;12.856;2022-07-03T11:56:33;24.30;48.60
15543;DHT22;7873;52.230;12.856;2022-07-03T11:59:02;24.30;48.50
15543;DHT22;7873;52.230;12.856;2022-07-03T12:01:31;24.30;48.40
15543;DHT22;7873;52.230;12.856;2022-07-03T12:04:02;24.30;48.40
15543;DHT22;7873;52.230;12.856;2022-07-03T12:06:34;24.30;48.40
15543;DHT22;7873;52.230;12.856;2022-07-03T12:09:11;24.30;48.50
15543;DHT22;7873;52.230;12.856;2022-07-03T12:11:39;24.20;49.60
15543;DHT22;7873;52.230;12.856;2022-07-03T12:14:06;24.10;49.10
15543;DHT22;7873;52.230;12.856;2022-07-03T12:16:33;24.10;49.20
15543;DHT22;7873;52.230;12.856;2022-07-03T12:19:04;24.10;49.10
15543;DHT22;7873;52.230;12.856;2022-07-03T12:21:35;24.10;49.10
15543;DHT22;7873;52.230;12.856;2022-07-03T12:24:13;24.10;49.10
15543;DHT22;7873;52.230;12.856;2022-07-03T12:26:40;24.10;49.10
15543;DHT22;7873;52.230;12.856;2022-07-03T12:29:08;24.10;49.10
15543;DHT22;7873;52.230;12.856;2022-07-03T12:31:38;24.10;49.10
15543;DHT22;7873;52.230;12.856;2022-07-03T12:34:05;24.10;49.10
15543;DHT22;7873;52.230;12.856;2022-07-03T12:36:32;24.20;49.00
15543;DHT22;7873;52.230;12.856;2022-07-03T12:39:00;24.10;48.50
15543;DHT22;7873;52.230;12.856;2022-07-03T12:41:27;24.20;48.30
15543;DHT22;7873;52.230;12.856;2022-07-03T12:43:54;24.00;49.40
15543;DHT22;7873;52.230;12.856;2022-07-03T12:46:22;24.00;50.30
15543;DHT22;7873;52.230;12.856;2022-07-03T12:48:50;24.00;50.20
15543;DHT22;7873;52.230;12.856;2022-07-03T12:51:38;24.00;50.10
15543;DHT22;7873;52.230;12.856;2022-07-03T12:54:07;24.10;50.00
15543;DHT22;7873;52.230;12.856;2022-07-03T12:56:34;24.00;49.80
15543;DHT22;7873;52.230;12.856;2022-07-03T12:59:01;24.10;49.80
15543;DHT22;7873;52.230;12.856;2022-07-03T13:01:42;24.00;49.80
15543;DHT22;7873;52.230;12.856;2022-07-03T13:04:09;24.10;49.80
15543;DHT22;7873;52.230;12.856;2022-07-03T13:06:39;24.00;49.80
15543;DHT22;7873;52.230;12.856;2022-07-03T13:09:08;24.10;49.70
15543;DHT22;7873;52.230;12.856;2022-07-03T13:11:36;24.20;49.50
15543;DHT22;7873;52.230;12.856;2022-07-03T13:14:04;24.30;49.40
15543;DHT22;7873;52.230;12.856;2022-07-03T13:16:36;24.20;49.50
15543;DHT22;7873;52.230;12.856;2022-07-03T13:19:04;24.20;49.40
15543;DHT22;7873;52.230;12.856;2022-07-03T13:21:32;24.10;49.40
15543;DHT22;7873;52.230;12.856;2022-07-03T13:23:59;24.10;49.50
15543;DHT22;7873;52.230;12.856;2022-07-03T13:26:27;24.10;49.80
15543;DHT22;7873;52.230;12.856;2022-07-03T13:28:54;24.10;49.90
15543;DHT22;7873;52.230;12.856;2022-07-03T13:31:21;24.10;49.70
15543;DHT22;7873;52.230;12.856;2022-07-03T13:33:47;24.10;49.70
15543;DHT22;7873;52.230;12.856;2022-07-03T13:36:14;24.20;49.50
15543;DHT22;7873;52.230;12.856;2022-07-03T13:38:43;24.20;49.60
15543;DHT22;7873;52.230;12.856;2022-07-03T13:41:10;24.20;49.40
15543;DHT22;7873;52.230;12.856;2022-07-03T13:43:38;24.20;49.40
15543;DHT22;7873;52.230;12.856;2022-07-03T13:46:05;24.20;49.50
15543;DHT22;7873;52.230;12.856;2022-07-03T13:48:32;24.20;49.50
15543;DHT22;7873;52.230;12.856;2022-07-03T13:50:58;24.20;49.50
15543;DHT22;7873;52.230;12.856;2022-07-03T13:53:25;24.30;49.40
15543;DHT22;7873;52.230;12.856;2022-07-03T13:55:53;24.30;49.40
15543;DHT22;7873;52.230;12.856;2022-07-03T13:58:21;24.30;49.50
15543;DHT22;7873;52.230;12.856;2022-07-03T14:00:49;24.30;49.50
15543;DHT22;7873;52.230;12.856;2022-07-03T14:03:16;24.30;49.50
15543;DHT22;7873;52.230;12.856;2022-07-03T14:05:43;24.30;49.40
15543;DHT22;7873;52.230;12.856;2022-07-03T14:08:09;24.30;49.30
15543;DHT22;7873;52.230;12.856;2022-07-03T14:10:36;24.30;49.30
15543;DHT22;7873;52.230;12.856;2022-07-03T14:13:03;24.30;49.50
15543;DHT22;7873;52.230;12.856;2022-07-03T14:15:31;24.30;49.40
15543;DHT22;7873;52.230;12.856;2022-07-03T14:18:00;24.40;49.50
15543;DHT22;7873;52.230;12.856;2022-07-03T14:20:27;24.40;49.40
15543;DHT22;7873;52.230;12.856;2022-07-03T14:22:55;24.40;49.50
15543;DHT22;7873;52.230;12.856;2022-07-03T14:25:22;24.40;49.60
15543;DHT22;7873;52.230;12.856;2022-07-03T14:27:48;24.40;49.50
15543;DHT22;7873;52.230;12.856;2022-07-03T14:30:33;24.40;49.50
15543;DHT22;7873;52.230;12.856;2022-07-03T14:33:18;24.50;49.30
15543;DHT22;7873;52.230;12.856;2022-07-03T14:35:45;24.50;49.30
15543;DHT22;7873;52.230;12.856;2022-07-03T14:38:12;24.50;49.20
15543;DHT22;7873;52.230;12.856;2022-07-03T14:40:39;24.60;49.20
15543;DHT22;7873;52.230;12.856;2022-07-03T14:43:05;24.60;49.20
15543;DHT22;7873;52.230;12.856;2022-07-03T14:45:32;24.60;49.10
15543;DHT22;7873;52.230;12.856;2022-07-03T14:47:59;24.60;49.10
15543;DHT22;7873;52.230;12.856;2022-07-03T14:50:27;24.70;49.10
15543;DHT22;7873;52.230;12.856;2022-07-03T14:52:53;24.70;49.00
15543;DHT22;7873;52.230;12.856;2022-07-03T14:55:20;24.70;49.00
15543;DHT22;7873;52.230;12.856;2022-07-03T14:57:49;24.80;49.00
15543;DHT22;7873;52.230;12.856;2022-07-03T15:00:19;24.80;49.00
15543;DHT22;7873;52.230;12.856;2022-07-03T15:02:52;24.80;49.00
15543;DHT22;7873;52.230;12.856;2022-07-03T15:05:30;24.90;48.90
15543;DHT22;7873;52.230;12.856;2022-07-03T15:08:03;24.90;48.80
15543;DHT22;7873;52.230;12.856;2022-07-03T15:10:31;24.90;48.80
15543;DHT22;7873;52.230;12.856;2022-07-03T15:13:01;25.00;48.80
15543;DHT22;7873;52.230;12.856;2022-07-03T15:15:30;25.00;48.70
15543;DHT22;7873;52.230;12.856;2022-07-03T15:17:58;25.00;48.70
15543;DHT22;7873;52.230;12.856;2022-07-03T15:20:32;25.10;48.70
15543;DHT22;7873;52.230;12.856;2022-07-03T15:23:02;25.10;48.70
15543;DHT22;7873;52.230;12.856;2022-07-03T15:25:32;25.10;48.70
15543;DHT22;7873;52.230;12.856;2022-07-03T15:28:01;25.20;48.70
15543;DHT22;7873;52.230;12.856;2022-07-03T15:30:28;25.20;48.50
15543;DHT22;7873;52.230;12.856;2022-07-03T15:32:55;25.20;48.50
15543;DHT22;7873;52.230;12.856;2022-07-03T15:35:24;25.20;48.50
15543;DHT22;7873;52.230;12.856;2022-07-03T15:37:56;25.30;48.80
15543;DHT22;7873;52.230;12.856;2022-07-03T15:40:33;25.20;49.40
15543;DHT22;7873;52.230;12.856;2022-07-03T15:43:15;25.20;49.50
15543;DHT22;7873;52.230;12.856;2022-07-03T15:46:07;25.30;49.50
15543;DHT22;7873;52.230;12.856;2022-07-03T15:48:48;25.30;49.50
15543;DHT22;7873;52.230;12.856;2022-07-03T15:51:27;25.30;49.80
15543;DHT22;7873;52.230;12.856;2022-07-03T15:54:02;25.30;50.20
15543;DHT22;7873;52.230;12.856;2022-07-03T15:56:32;25.40;50.40
15543;DHT22;7873;52.230;12.856;2022-07-03T15:59:03;25.40;50.00
15543;DHT22;7873;52.230;12.856;2022-07-03T16:01:32;25.40;49.80